Time;durP1;ratioP1;P1;durP2;ratioP2;P2;SDS_P1;SDS_P2;PMS_P1;PMS_P2;Temp;Humidity;BMP_temperature;BMP_pressure;BME280_temperature;BME280_humidity;BME280_pressure;Samples;Min_cycle;Max_cycle;Signal;HPM_P1;HPM_P2
2022/08/26 00:01:54;;;;;;;12.35;10.80;;;;;;;;;;4996385;28;20034;-77
2022/08/26 00:04:22;;;;;;;12.60;10.75;;;;;;;;;;4995405;28;20022;-77
2022/08/26 00:06:48;;;;;;;12.88;10.82;;;;;;;;;;4995159;28;20433;-77
2022/08/26 00:09:14;;;;;;;12.90;10.90;;;;;;;;;;5003677;28;20018;-77
2022/08/26 00:11:40;;;;;;;13.50;10.63;;;;;;;;;;5013093;28;20026;-77
2022/08/26 00:14:06;;;;;;;12.18;10.68;;;;;;;;;;5012886;28;20045;-77
2022/08/26 00:16:33;;;;;;;13.60;10.90;;;;;;;;;;5018508;28;20056;-80
2022/08/26 00:18:59;;;;;;;13.52;10.27;;;;;;;;;;5017560;28;20382;-79
2022/08/26 00:21:25;;;;;;;14.68;10.75;;;;;;;;;;5005228;28;20057;-79
2022/08/26 00:23:51;;;;;;;12.73;10.93;;;;;;;;;;5016883;28;20112;-79
2022/08/26 00:26:17;;;;;;;13.90;10.98;;;;;;;;;;5001275;28;20474;-80
2022/08/26 00:28:43;;;;;;;12.80;10.75;;;;;;;;;;5018686;28;20080;-79
2022/08/26 00:31:09;;;;;;;11.98;10.65;;;;;;;;;;5007744;28;20042;-79
2022/08/26 00:33:35;;;;;;;13.57;10.82;;;;;;;;;;4988014;28;20062;-79
2022/08/26 00:36:01;;;;;;;14.00;11.57;;;;;;;;;;5010026;28;20034;-78
2022/08/26 00:38:27;;;;;;;15.50;11.68;;;;;;;;;;5015072;28;20041;-78
2022/08/26 00:40:54;;;;;;;12.82;10.88;;;;;;;;;;5008033;28;20025;-78
2022/08/26 00:43:21;;;;;;;16.30;12.15;;;;;;;;;;5018976;28;20030;-78
2022/08/26 00:45:50;;;;;;;16.25;12.07;;;;;;;;;;5013599;28;20030;-80
2022/08/26 00:48:18;;;;;;;14.45;11.35;;;;;;;;;;5019736;28;20021;-80
2022/08/26 00:50:50;;;;;;;18.95;11.85;;;;;;;;;;4991152;28;20034;-80
2022/08/26 00:53:23;;;;;;;13.40;11.02;;;;;;;;;;5012670;28;20037;-80
2022/08/26 00:55:59;;;;;;;13.57;10.93;;;;;;;;;;5020152;28;20040;-80
2022/08/26 00:58:27;;;;;;;13.10;11.20;;;;;;;;;;5018011;28;20025;-80
2022/08/26 01:00:53;;;;;;;12.27;10.45;;;;;;;;;;5013783;28;20034;-80
2022/08/26 01:03:23;;;;;;;12.30;10.95;;;;;;;;;;5001363;28;20322;-80
2022/08/26 01:05:49;;;;;;;15.07;11.48;;;;;;;;;;4983275;28;20026;-80
2022/08/26 01:08:15;;;;;;;15.85;11.25;;;;;;;;;;5017124;28;20092;-80
2022/08/26 01:10:42;;;;;;;13.55;11.40;;;;;;;;;;5018615;28;20485;-81
2022/08/26 01:13:09;;;;;;;15.65;11.70;;;;;;;;;;5018692;28;20045;-81
2022/08/26 01:15:37;;;;;;;14.32;11.95;;;;;;;;;;5017748;28;20290;-81
2022/08/26 01:18:04;;;;;;;14.57;11.32;;;;;;;;;;5015131;28;20073;-80
2022/08/26 01:20:50;;;;;;;15.25;11.63;;;;;;;;;;5009596;28;20030;-80
2022/08/26 01:23:17;;;;;;;14.88;11.70;;;;;;;;;;5020034;28;20026;-80
2022/08/26 01:25:45;;;;;;;13.07;11.13;;;;;;;;;;5023856;28;20490;-79
2022/08/26 01:28:14;;;;;;;13.00;10.82;;;;;;;;;;5000351;28;20026;-80
2022/08/26 01:30:40;;;;;;;13.80;10.70;;;;;;;;;;5003927;28;20030;-80
2022/08/26 01:33:10;;;;;;;15.73;12.35;;;;;;;;;;5014009;28;20109;-80
2022/08/26 01:35:36;;;;;;;16.65;12.80;;;;;;;;;;5018993;28;20394;-80
2022/08/26 01:38:03;;;;;;;15.23;11.30;;;;;;;;;;5016162;28;20568;-80
2022/08/26 01:40:31;;;;;;;15.00;11.50;;;;;;;;;;5004638;28;20038;-80
2022/08/26 01:42:59;;;;;;;13.10;10.93;;;;;;;;;;5011905;28;20022;-80
2022/08/26 01:45:27;;;;;;;13.73;11.20;;;;;;;;;;5007065;28;20030;-79
2022/08/26 01:47:55;;;;;;;13.65;11.32;;;;;;;;;;5015869;28;20026;-79
2022/08/26 01:50:23;;;;;;;14.00;11.85;;;;;;;;;;5014839;28;20026;-79
2022/08/26 01:52:51;;;;;;;14.75;12.30;;;;;;;;;;4995029;28;20018;-79
2022/08/26 01:55:18;;;;;;;15.32;12.52;;;;;;;;;;5011640;28;20018;-79
2022/08/26 01:57:45;;;;;;;14.88;11.70;;;;;;;;;;5016143;28;20048;-80
2022/08/26 02:00:12;;;;;;;15.73;12.05;;;;;;;;;;5016644;28;20029;-79
2022/08/26 02:02:39;;;;;;;16.25;12.18;;;;;;;;;;5015958;28;20279;-79
2022/08/26 02:05:06;;;;;;;14.13;11.40;;;;;;;;;;4999746;28;20033;-79
2022/08/26 02:07:32;;;;;;;15.80;11.77;;;;;;;;;;5004836;28;20127;-79
2022/08/26 02:09:58;;;;;;;13.65;11.57;;;;;;;;;;5017697;28;20293;-80
2022/08/26 02:12:25;;;;;;;15.98;12.27;;;;;;;;;;5026800;28;20022;-80
2022/08/26 02:14:57;;;;;;;14.73;12.18;;;;;;;;;;5026602;28;20029;-80
2022/08/26 02:17:26;;;;;;;13.35;11.85;;;;;;;;;;5025596;28;20502;-80
2022/08/26 02:19:52;;;;;;;13.63;11.18;;;;;;;;;;5021781;28;20096;-80
2022/08/26 02:22:20;;;;;;;16.10;12.48;;;;;;;;;;5025691;28;20033;-81
2022/08/26 02:24:46;;;;;;;14.75;12.43;;;;;;;;;;5026274;28;20029;-80
2022/08/26 02:27:13;;;;;;;14.98;11.82;;;;;;;;;;5009215;28;20473;-80
2022/08/26 02:29:41;;;;;;;13.90;10.50;;;;;;;;;;5024765;28;20050;-80
2022/08/26 02:32:08;;;;;;;14.15;11.70;;;;;;;;;;4989944;28;20035;-81
2022/08/26 02:34:34;;;;;;;14.10;11.52;;;;;;;;;;5011284;28;20018;-80
2022/08/26 02:37:01;;;;;;;16.23;12.07;;;;;;;;;;5020328;28;20040;-79
2022/08/26 02:39:28;;;;;;;13.85;11.48;;;;;;;;;;5013195;28;20038;-81
2022/08/26 02:41:54;;;;;;;13.32;10.80;;;;;;;;;;5025338;28;20032;-80
2022/08/26 02:44:21;;;;;;;13.63;10.80;;;;;;;;;;5019459;28;20025;-80
2022/08/26 02:46:47;;;;;;;15.10;11.18;;;;;;;;;;5023788;28;20052;-78
2022/08/26 02:49:13;;;;;;;13.77;11.45;;;;;;;;;;5020878;28;20026;-78
2022/08/26 02:51:39;;;;;;;17.00;11.75;;;;;;;;;;4990853;28;20026;-78
2022/08/26 02:54:06;;;;;;;15.57;12.27;;;;;;;;;;5022273;28;20088;-77
2022/08/26 02:56:32;;;;;;;14.43;11.60;;;;;;;;;;5024341;28;20034;-78
2022/08/26 02:58:58;;;;;;;13.65;11.43;;;;;;;;;;5010960;28;20029;-80
2022/08/26 03:01:26;;;;;;;13.85;11.85;;;;;;;;;;5025800;28;20025;-80
2022/08/26 03:03:53;;;;;;;15.80;12.20;;;;;;;;;;5011551;28;20056;-80
2022/08/26 03:06:19;;;;;;;13.20;10.98;;;;;;;;;;5023484;28;20029;-80
2022/08/26 03:08:45;;;;;;;14.25;11.75;;;;;;;;;;5024621;28;20172;-80
2022/08/26 03:11:11;;;;;;;14.73;11.90;;;;;;;;;;5020638;28;20038;-80
2022/08/26 03:13:38;;;;;;;14.93;11.55;;;;;;;;;;4999277;28;20097;-80
2022/08/26 03:16:04;;;;;;;15.65;12.00;;;;;;;;;;5003814;28;20026;-80
2022/08/26 03:18:30;;;;;;;13.88;11.65;;;;;;;;;;5018474;28;21020;-80
2022/08/26 03:20:56;;;;;;;13.35;11.52;;;;;;;;;;5009139;28;20030;-80
2022/08/26 03:23:22;;;;;;;14.50;12.13;;;;;;;;;;5026120;28;20041;-80
2022/08/26 03:25:52;;;;;;;16.98;12.32;;;;;;;;;;5008291;28;20598;-80
2022/08/26 03:28:18;;;;;;;15.07;11.60;;;;;;;;;;4989836;28;20026;-80
2022/08/26 03:30:44;;;;;;;14.27;11.60;;;;;;;;;;5022920;28;20405;-80
2022/08/26 03:33:11;;;;;;;13.93;11.63;;;;;;;;;;5008768;28;20022;-80
2022/08/26 03:35:38;;;;;;;15.57;11.13;;;;;;;;;;5026182;28;20034;-81
2022/08/26 03:38:06;;;;;;;13.73;11.13;;;;;;;;;;5007109;28;20080;-80
2022/08/26 03:40:33;;;;;;;15.38;12.07;;;;;;;;;;5016255;28;20052;-80
2022/08/26 03:42:59;;;;;;;15.60;10.80;;;;;;;;;;5015328;28;20022;-80
2022/08/26 03:45:26;;;;;;;14.82;11.60;;;;;;;;;;4998020;28;20030;-79
2022/08/26 03:47:52;;;;;;;15.02;12.02;;;;;;;;;;5000662;28;20034;-80
2022/08/26 03:50:19;;;;;;;15.02;11.85;;;;;;;;;;5015606;28;20037;-80
2022/08/26 03:52:45;;;;;;;14.55;11.35;;;;;;;;;;5015034;28;20035;-80
2022/08/26 03:55:12;;;;;;;16.88;12.15;;;;;;;;;;5014682;28;20038;-80
2022/08/26 03:57:38;;;;;;;17.60;12.32;;;;;;;;;;5010649;28;20104;-80
2022/08/26 04:00:08;;;;;;;17.77;12.43;;;;;;;;;;5012807;28;20485;-80
2022/08/26 04:02:35;;;;;;;15.13;12.35;;;;;;;;;;4995184;28;20022;-80
2022/08/26 04:05:01;;;;;;;16.40;12.10;;;;;;;;;;5016356;28;20036;-80
2022/08/26 04:07:27;;;;;;;21.20;13.52;;;;;;;;;;4997392;28;20504;-80
2022/08/26 04:09:57;;;;;;;14.75;12.20;;;;;;;;;;5016573;28;20044;-80
2022/08/26 04:12:24;;;;;;;18.17;11.77;;;;;;;;;;5001967;28;20489;-80
2022/08/26 04:14:51;;;;;;;17.30;12.13;;;;;;;;;;5014135;28;20137;-79
2022/08/26 04:17:17;;;;;;;15.88;11.88;;;;;;;;;;5012179;28;20524;-80
2022/08/26 04:19:43;;;;;;;17.98;13.02;;;;;;;;;;5018050;28;20033;-80
2022/08/26 04:22:09;;;;;;;15.75;11.38;;;;;;;;;;5020262;28;20038;-80
2022/08/26 04:24:38;;;;;;;16.88;12.63;;;;;;;;;;4994474;28;20027;-81
2022/08/26 04:27:04;;;;;;;16.02;12.40;;;;;;;;;;5016608;28;20018;-79
2022/08/26 04:29:30;;;;;;;15.68;12.38;;;;;;;;;;5018287;28;20029;-80
2022/08/26 04:31:56;;;;;;;15.60;12.55;;;;;;;;;;5019462;28;20033;-80
2022/08/26 04:34:23;;;;;;;14.18;12.10;;;;;;;;;;5022376;28;20061;-80
2022/08/26 04:36:50;;;;;;;16.92;12.32;;;;;;;;;;5012830;28;20030;-80
2022/08/26 04:39:16;;;;;;;16.65;12.90;;;;;;;;;;5015586;28;20383;-80
2022/08/26 04:41:46;;;;;;;17.15;12.82;;;;;;;;;;5016072;28;20459;-80
2022/08/26 04:44:13;;;;;;;16.65;12.80;;;;;;;;;;5007069;28;20026;-80
2022/08/26 04:46:39;;;;;;;20.13;13.60;;;;;;;;;;5005259;28;20022;-80
2022/08/26 04:49:07;;;;;;;17.67;11.95;;;;;;;;;;5017444;28;20026;-80
2022/08/26 04:51:33;;;;;;;19.45;12.95;;;;;;;;;;5007487;28;20030;-80
2022/08/26 04:53:59;;;;;;;24.23;13.98;;;;;;;;;;5018480;28;20022;-80
2022/08/26 04:56:26;;;;;;;17.17;13.60;;;;;;;;;;5018271;28;20037;-80
2022/08/26 04:58:52;;;;;;;16.88;13.23;;;;;;;;;;5017675;28;20041;-80
2022/08/26 05:01:19;;;;;;;17.40;13.77;;;;;;;;;;5017531;28;20036;-80
2022/08/26 05:03:45;;;;;;;18.48;13.65;;;;;;;;;;5002508;28;20022;-80
2022/08/26 05:06:11;;;;;;;17.60;13.55;;;;;;;;;;5018122;28;20033;-80
2022/08/26 05:08:39;;;;;;;19.02;14.13;;;;;;;;;;5000834;28;20091;-80
2022/08/26 05:11:05;;;;;;;16.90;13.02;;;;;;;;;;5013656;28;20643;-80
2022/08/26 05:13:32;;;;;;;24.48;14.88;;;;;;;;;;5032570;28;20040;-80
2022/08/26 05:16:01;;;;;;;19.50;14.48;;;;;;;;;;5024708;28;20128;-80
2022/08/26 05:18:28;;;;;;;17.30;13.07;;;;;;;;;;5016883;28;20053;-80
2022/08/26 05:20:54;;;;;;;18.95;13.95;;;;;;;;;;5015216;28;20112;-80
2022/08/26 05:23:22;;;;;;;19.45;14.52;;;;;;;;;;4998688;28;20056;-80
2022/08/26 05:25:49;;;;;;;18.55;14.57;;;;;;;;;;5017400;28;20060;-80
2022/08/26 05:28:16;;;;;;;18.65;14.80;;;;;;;;;;5017488;28;20082;-81
2022/08/26 05:30:43;;;;;;;22.27;16.13;;;;;;;;;;5003413;28;20018;-80
2022/08/26 05:33:09;;;;;;;17.48;14.57;;;;;;;;;;5016314;28;20478;-80
2022/08/26 05:35:37;;;;;;;19.17;14.05;;;;;;;;;;5017498;28;20057;-81
2022/08/26 05:38:04;;;;;;;20.23;14.52;;;;;;;;;;4995494;28;20450;-80
2022/08/26 05:40:33;;;;;;;15.90;12.98;;;;;;;;;;5012402;28;20497;-80
2022/08/26 05:42:59;;;;;;;22.52;14.75;;;;;;;;;;5015083;28;20030;-80
2022/08/26 05:45:26;;;;;;;16.75;12.60;;;;;;;;;;5017114;28;20028;-80
2022/08/26 05:47:53;;;;;;;21.58;14.43;;;;;;;;;;5017974;28;20461;-80
2022/08/26 05:50:20;;;;;;;19.70;14.48;;;;;;;;;;5015100;28;20375;-81
2022/08/26 05:52:49;;;;;;;20.63;15.70;;;;;;;;;;5014141;28;20366;-80
2022/08/26 05:55:16;;;;;;;19.48;13.35;;;;;;;;;;5017106;28;20044;-80
2022/08/26 05:57:42;;;;;;;22.17;15.32;;;;;;;;;;5017700;28;20053;-80
2022/08/26 06:00:10;;;;;;;20.58;15.48;;;;;;;;;;5016741;28;20026;-80
2022/08/26 06:02:38;;;;;;;21.98;16.02;;;;;;;;;;5007306;28;20030;-80
2022/08/26 06:05:04;;;;;;;22.23;15.98;;;;;;;;;;5022944;28;20076;-80
2022/08/26 06:10:15;;;;;;;23.27;15.75;;;;;;;;;;5019110;28;20037;-80
2022/08/26 06:12:41;;;;;;;20.15;15.02;;;;;;;;;;4995248;28;20045;-81
2022/08/26 06:15:07;;;;;;;25.33;16.23;;;;;;;;;;4990692;28;20030;-81
2022/08/26 06:17:33;;;;;;;22.52;15.55;;;;;;;;;;5005123;28;20054;-80
2022/08/26 06:19:59;;;;;;;24.73;17.25;;;;;;;;;;5011144;28;20048;-80
2022/08/26 06:27:55;;;;;;;23.83;16.67;;;;;;;;;;5023934;28;20358;-80
2022/08/26 06:30:21;;;;;;;23.38;16.27;;;;;;;;;;5018881;28;20034;-79
2022/08/26 06:32:47;;;;;;;24.90;16.42;;;;;;;;;;4999148;28;20118;-80
2022/08/26 06:35:13;;;;;;;20.52;15.77;;;;;;;;;;5015652;28;20086;-80
2022/08/26 06:37:39;;;;;;;20.58;15.68;;;;;;;;;;5018734;28;20449;-79
2022/08/26 06:40:06;;;;;;;26.48;16.48;;;;;;;;;;5016456;28;20387;-79
2022/08/26 06:42:32;;;;;;;27.92;16.98;;;;;;;;;;5010995;28;20488;-79
2022/08/26 06:44:58;;;;;;;22.77;16.38;;;;;;;;;;5014255;28;20307;-79
2022/08/26 06:47:24;;;;;;;29.75;18.80;;;;;;;;;;4997812;28;20033;-79
2022/08/26 06:49:50;;;;;;;20.60;15.98;;;;;;;;;;4987490;28;20029;-79
2022/08/26 06:52:16;;;;;;;27.05;16.83;;;;;;;;;;5018634;28;20026;-79
2022/08/26 06:54:43;;;;;;;27.35;17.05;;;;;;;;;;5007560;28;20034;-79
2022/08/26 06:57:10;;;;;;;20.15;15.68;;;;;;;;;;5013877;28;20030;-79
2022/08/26 06:59:36;;;;;;;25.40;16.40;;;;;;;;;;5015415;28;20113;-79
2022/08/26 07:02:02;;;;;;;23.73;18.67;;;;;;;;;;4979359;28;20295;-79
2022/08/26 07:04:28;;;;;;;23.00;17.50;;;;;;;;;;5016033;28;20530;-79
2022/08/26 07:06:55;;;;;;;24.25;18.45;;;;;;;;;;5016010;28;20474;-79
2022/08/26 07:09:22;;;;;;;23.90;18.38;;;;;;;;;;5013678;28;20028;-79
2022/08/26 07:11:50;;;;;;;22.20;17.05;;;;;;;;;;4991381;28;20382;-79
2022/08/26 07:14:17;;;;;;;24.17;18.48;;;;;;;;;;5016433;28;20036;-79
2022/08/26 07:16:43;;;;;;;29.65;19.08;;;;;;;;;;5006167;28;20035;-79
2022/08/26 07:19:10;;;;;;;26.23;18.25;;;;;;;;;;5015102;28;20094;-79
2022/08/26 07:21:36;;;;;;;26.83;17.42;;;;;;;;;;5014651;28;20029;-79
2022/08/26 07:24:03;;;;;;;24.15;18.40;;;;;;;;;;5013439;28;20030;-79
2022/08/26 07:26:30;;;;;;;23.38;18.67;;;;;;;;;;5006763;28;20029;-79
2022/08/26 07:28:57;;;;;;;22.60;18.35;;;;;;;;;;4981632;28;20101;-79
2022/08/26 07:31:25;;;;;;;22.52;17.50;;;;;;;;;;5015146;28;20025;-79
2022/08/26 07:33:51;;;;;;;25.75;18.00;;;;;;;;;;5015428;28;20028;-79
2022/08/26 07:36:17;;;;;;;28.55;18.73;;;;;;;;;;5010548;28;20026;-78
2022/08/26 07:38:44;;;;;;;26.30;18.92;;;;;;;;;;4994518;28;20052;-79
2022/08/26 07:41:12;;;;;;;28.08;18.77;;;;;;;;;;5010978;28;20038;-79
2022/08/26 07:43:38;;;;;;;29.23;18.48;;;;;;;;;;5010655;28;20020;-79
2022/08/26 07:46:05;;;;;;;26.48;18.90;;;;;;;;;;5016515;28;20037;-79
2022/08/26 07:48:31;;;;;;;25.02;18.85;;;;;;;;;;5010988;28;20076;-79
2022/08/26 07:50:57;;;;;;;26.73;18.52;;;;;;;;;;5019597;28;20033;-79
2022/08/26 07:53:23;;;;;;;23.63;17.80;;;;;;;;;;5019967;28;20022;-78
2022/08/26 07:55:49;;;;;;;26.30;18.38;;;;;;;;;;5015076;28;20499;-79
2022/08/26 07:58:15;;;;;;;30.60;18.42;;;;;;;;;;5019912;28;20085;-79
2022/08/26 08:00:41;;;;;;;29.02;17.58;;;;;;;;;;5020638;28;20022;-79
2022/08/26 08:03:08;;;;;;;22.88;16.42;;;;;;;;;;5019400;28;20018;-79
2022/08/26 08:05:35;;;;;;;22.60;17.33;;;;;;;;;;5015451;28;20045;-79
2022/08/26 08:08:03;;;;;;;26.90;17.48;;;;;;;;;;5017762;28;20413;-79
2022/08/26 08:10:29;;;;;;;25.70;17.40;;;;;;;;;;5018808;28;20026;-79
2022/08/26 08:12:56;;;;;;;23.35;16.98;;;;;;;;;;5003134;28;20022;-79
2022/08/26 08:15:25;;;;;;;20.60;16.63;;;;;;;;;;4995247;28;20022;-79
2022/08/26 08:17:51;;;;;;;20.83;16.85;;;;;;;;;;5000826;28;20049;-77
2022/08/26 08:20:17;;;;;;;21.50;16.63;;;;;;;;;;5016818;28;20112;-77
2022/08/26 08:22:44;;;;;;;20.20;17.85;;;;;;;;;;5010449;28;20026;-79
2022/08/26 08:25:10;;;;;;;21.48;16.20;;;;;;;;;;5013480;28;20026;-79
2022/08/26 08:27:37;;;;;;;23.23;16.30;;;;;;;;;;5001952;28;20026;-78
2022/08/26 08:30:03;;;;;;;21.33;16.08;;;;;;;;;;5015215;28;20022;-78
2022/08/26 08:32:29;;;;;;;23.58;16.67;;;;;;;;;;5018438;28;20371;-78
2022/08/26 08:34:57;;;;;;;23.83;16.42;;;;;;;;;;5010009;28;20025;-78
2022/08/26 08:37:23;;;;;;;24.20;16.05;;;;;;;;;;5016590;28;20101;-78
2022/08/26 08:39:49;;;;;;;20.15;16.95;;;;;;;;;;5018348;28;20049;-78
2022/08/26 08:42:37;;;;;;;24.08;17.20;;;;;;;;;;5016758;28;20394;-79
2022/08/26 08:45:06;;;;;;;19.33;15.65;;;;;;;;;;4998937;28;20026;-78
2022/08/26 08:47:41;;;;;;;21.92;14.88;;;;;;;;;;5000261;28;20387;-78
2022/08/26 08:50:26;;;;;;;16.77;14.18;;;;;;;;;;5014407;28;20018;-78
2022/08/26 08:53:12;;;;;;;16.95;14.15;;;;;;;;;;5017806;28;20029;-78
2022/08/26 08:55:57;;;;;;;16.70;13.45;;;;;;;;;;5013745;28;20116;-78
2022/08/26 08:58:34;;;;;;;18.27;12.90;;;;;;;;;;4992347;28;20031;-79
2022/08/26 09:01:03;;;;;;;16.77;12.68;;;;;;;;;;5018060;28;20486;-78
2022/08/26 09:03:48;;;;;;;14.55;11.00;;;;;;;;;;5004667;28;20024;-78
2022/08/26 09:06:17;;;;;;;13.93;10.13;;;;;;;;;;4994142;28;20117;-78
2022/08/26 09:08:47;;;;;;;11.30;9.73;;;;;;;;;;5003644;28;20029;-79
2022/08/26 09:11:14;;;;;;;13.30;9.40;;;;;;;;;;5002212;28;20109;-78
2022/08/26 09:13:44;;;;;;;14.38;11.52;;;;;;;;;;5000243;28;20033;-78
2022/08/26 09:16:13;;;;;;;13.75;10.95;;;;;;;;;;5013819;28;20037;-78
2022/08/26 09:18:47;;;;;;;15.65;11.40;;;;;;;;;;5010227;28;20026;-78
2022/08/26 09:21:15;;;;;;;16.80;10.88;;;;;;;;;;5008412;28;20030;-78
2022/08/26 09:23:43;;;;;;;15.40;10.75;;;;;;;;;;5006309;28;20022;-78
2022/08/26 09:26:29;;;;;;;13.63;10.90;;;;;;;;;;5012287;28;20030;-79
2022/08/26 09:28:58;;;;;;;15.02;10.20;;;;;;;;;;5002164;28;20072;-80
2022/08/26 09:31:29;;;;;;;10.90;9.57;;;;;;;;;;5006385;28;20029;-79
2022/08/26 09:34:16;;;;;;;14.63;10.23;;;;;;;;;;5016042;28;20026;-78
2022/08/26 09:36:42;;;;;;;14.60;9.98;;;;;;;;;;5018311;28;20053;-78
2022/08/26 09:39:26;;;;;;;12.10;9.57;;;;;;;;;;5015783;28;20429;-78
2022/08/26 09:42:03;;;;;;;13.55;10.18;;;;;;;;;;5018027;28;20046;-79
2022/08/26 09:44:30;;;;;;;18.30;9.85;;;;;;;;;;5019075;28;20022;-79
2022/08/26 09:47:01;;;;;;;15.48;9.80;;;;;;;;;;4989836;28;20126;-78
2022/08/26 09:49:35;;;;;;;13.15;9.50;;;;;;;;;;5006460;28;20543;-78
2022/08/26 09:52:04;;;;;;;14.20;9.48;;;;;;;;;;5001368;28;20493;-80
2022/08/26 09:54:30;;;;;;;11.43;8.93;;;;;;;;;;4998812;28;20083;-78
2022/08/26 09:57:32;;;;;;;13.93;9.35;;;;;;;;;;5013119;28;20057;-78
2022/08/26 10:00:00;;;;;;;15.03;9.90;;;;;;;;;;4925931;29;20058;-79
2022/08/26 10:02:28;;;;;;;14.27;9.32;;;;;;;;;;4936197;29;20631;-79
2022/08/26 10:04:56;;;;;;;14.82;9.30;;;;;;;;;;4937474;29;20039;-80
2022/08/26 10:07:39;;;;;;;14.15;8.43;;;;;;;;;;4934876;29;20027;-79
2022/08/26 10:10:08;;;;;;;10.50;9.05;;;;;;;;;;4936543;29;20031;-79
2022/08/26 10:12:36;;;;;;;13.38;10.10;;;;;;;;;;4934363;29;20244;-79
2022/08/26 10:15:08;;;;;;;14.27;10.30;;;;;;;;;;4936533;29;20075;-79
2022/08/26 10:17:48;;;;;;;13.88;10.23;;;;;;;;;;4936781;29;20083;-80
2022/08/26 10:20:25;;;;;;;12.35;9.43;;;;;;;;;;4902939;29;20040;-80
2022/08/26 10:22:57;;;;;;;14.23;9.15;;;;;;;;;;4920589;29;20032;-80
2022/08/26 10:25:23;;;;;;;;;;;;;;;;;;4938389;29;20551;-80
2022/08/26 10:28:11;;;;;;;15.73;9.38;;;;;;;;;;4936370;29;19911;-80
2022/08/26 10:30:40;;;;;;;16.27;10.35;;;;;;;;;;4938299;29;20031;-80
2022/08/26 10:33:07;;;;;;;15.90;9.20;;;;;;;;;;4946993;28;20077;-80
2022/08/26 10:35:35;;;;;;;13.48;10.20;;;;;;;;;;5016727;28;20026;-78
2022/08/26 10:38:03;;;;;;;12.60;10.30;;;;;;;;;;5016608;28;20053;-78
2022/08/26 10:40:48;;;;;;;13.82;9.00;;;;;;;;;;5016160;28;20049;-78
2022/08/26 10:43:14;;;;;;;12.35;7.80;;;;;;;;;;5015287;28;20040;-78
2022/08/26 10:45:46;;;;;;;13.30;7.90;;;;;;;;;;5007141;28;20104;-78
2022/08/26 10:48:15;;;;;;;13.02;8.27;;;;;;;;;;4996867;28;20061;-80
2022/08/26 10:50:42;;;;;;;14.55;8.85;;;;;;;;;;4997462;28;20026;-80
2022/08/26 10:53:14;;;;;;;14.85;7.82;;;;;;;;;;4998778;28;20022;-80
2022/08/26 10:55:45;;;;;;;11.80;8.25;;;;;;;;;;4993440;28;20032;-80
2022/08/26 10:58:17;;;;;;;15.05;8.80;;;;;;;;;;5017187;28;20034;-79
2022/08/26 11:03:39;;;;;;;11.57;8.25;;;;;;;;;;5015842;28;20080;-80
2022/08/26 11:06:17;;;;;;;11.35;7.45;;;;;;;;;;4996851;28;20478;-80
2022/08/26 11:08:49;;;;;;;12.00;7.30;;;;;;;;;;5007728;28;20405;-80
2022/08/26 11:11:15;;;;;;;;;;;;;;;;;;5016455;28;20033;-80
2022/08/26 11:13:58;;;;;;;10.25;8.00;;;;;;;;;;4981126;28;20479;-80
2022/08/26 11:16:38;;;;;;;12.65;7.05;;;;;;;;;;4997049;28;20125;-80
2022/08/26 11:19:05;;;;;;;11.90;7.03;;;;;;;;;;5000292;28;20029;-80
2022/08/26 11:21:50;;;;;;;10.18;7.32;;;;;;;;;;5002568;28;20026;-79
2022/08/26 11:24:35;;;;;;;12.23;7.55;;;;;;;;;;5019598;28;20025;-80
2022/08/26 11:27:01;;;;;;;15.65;8.07;;;;;;;;;;5001041;28;20023;-79
2022/08/26 11:30:02;;;;;;;12.05;7.40;;;;;;;;;;5002501;28;20022;-80
2022/08/26 11:32:35;;;;;;;13.25;7.63;;;;;;;;;;4921908;29;20059;-80
2022/08/26 11:35:03;;;;;;;11.88;7.15;;;;;;;;;;5002013;28;20038;-80
2022/08/26 11:37:36;;;;;;;11.45;7.68;;;;;;;;;;5020837;28;20026;-80
2022/08/26 11:40:06;;;;;;;10.77;7.35;;;;;;;;;;5007677;28;20433;-80
2022/08/26 11:42:33;;;;;;;11.27;7.38;;;;;;;;;;5009197;28;20030;-80
2022/08/26 11:45:00;;;;;;;13.20;7.88;;;;;;;;;;4997121;28;20018;-79
2022/08/26 11:47:30;;;;;;;11.73;7.82;;;;;;;;;;5018917;28;20022;-80
2022/08/26 11:50:31;;;;;;;11.77;7.88;;;;;;;;;;5016430;28;20022;-80
2022/08/26 11:53:03;;;;;;;14.15;8.00;;;;;;;;;;4882537;29;20029;-80
2022/08/26 11:55:29;;;;;;;10.05;8.25;;;;;;;;;;4884585;29;20041;-80
2022/08/26 11:57:58;;;;;;;10.52;7.97;;;;;;;;;;4883071;29;20033;-79
2022/08/26 12:00:29;;;;;;;13.52;8.68;;;;;;;;;;4883608;29;20055;-79
2022/08/26 12:02:58;;;;;;;12.93;7.88;;;;;;;;;;4894473;29;20057;-78
2022/08/26 12:05:29;;;;;;;13.77;8.15;;;;;;;;;;4900436;29;20033;-78
2022/08/26 12:07:56;;;;;;;11.77;7.70;;;;;;;;;;4898906;29;20549;-78
2022/08/26 12:10:32;;;;;;;9.98;7.18;;;;;;;;;;4877257;29;20040;-78
2022/08/26 12:12:59;;;;;;;10.40;7.38;;;;;;;;;;4883266;29;20029;-78
2022/08/26 12:15:27;;;;;;;11.75;8.25;;;;;;;;;;4899307;29;20041;-78
2022/08/26 12:17:53;;;;;;;11.65;8.02;;;;;;;;;;4898201;29;20063;-78
2022/08/26 12:20:45;;;;;;;10.93;7.50;;;;;;;;;;4903620;29;20420;-79
2022/08/26 12:23:21;;;;;;;11.27;7.78;;;;;;;;;;4906304;29;20394;-78
2022/08/26 12:25:47;;;;;;;10.80;7.60;;;;;;;;;;4893790;28;20103;-80
2022/08/26 12:28:13;;;;;;;15.10;8.05;;;;;;;;;;5011615;28;20030;-79
2022/08/26 12:30:39;;;;;;;11.82;7.70;;;;;;;;;;5016005;28;20441;-79
2022/08/26 12:33:07;;;;;;;10.68;8.52;;;;;;;;;;5012808;28;20033;-80
2022/08/26 12:35:35;;;;;;;10.80;8.30;;;;;;;;;;5010684;28;20025;-78
2022/08/26 12:38:03;;;;;;;11.95;8.40;;;;;;;;;;4999059;28;20121;-78
2022/08/26 12:40:29;;;;;;;10.00;7.00;;;;;;;;;;5013687;28;20021;-78
2022/08/26 12:42:58;;;;;;;13.73;6.70;;;;;;;;;;5012163;28;20033;-77
2022/08/26 12:45:38;;;;;;;11.32;6.55;;;;;;;;;;5002139;28;20033;-78
2022/08/26 12:48:09;;;;;;;9.73;6.18;;;;;;;;;;4996277;28;20047;-78
2022/08/26 12:50:39;;;;;;;12.07;7.20;;;;;;;;;;5009598;28;20022;-78
2022/08/26 12:53:14;;;;;;;9.10;6.60;;;;;;;;;;5012164;28;20040;-77
2022/08/26 12:55:43;;;;;;;8.80;7.00;;;;;;;;;;5004752;28;20035;-78
2022/08/26 12:58:12;;;;;;;11.07;7.28;;;;;;;;;;4996534;28;20065;-79
2022/08/26 13:00:39;;;;;;;10.73;6.45;;;;;;;;;;5012931;28;20029;-78
2022/08/26 13:03:25;;;;;;;10.50;7.32;;;;;;;;;;5013468;28;20040;-78
2022/08/26 13:05:51;;;;;;;10.20;6.68;;;;;;;;;;5014201;28;20030;-79
2022/08/26 13:08:27;;;;;;;14.40;7.50;;;;;;;;;;5018382;28;20037;-79
2022/08/26 13:11:04;;;;;;;13.18;7.13;;;;;;;;;;5002320;28;20054;-79
2022/08/26 13:13:30;;;;;;;10.65;6.80;;;;;;;;;;5001817;28;20421;-78
2022/08/26 13:15:57;;;;;;;14.73;6.63;;;;;;;;;;5019822;28;20033;-78
2022/08/26 13:18:24;;;;;;;10.52;6.60;;;;;;;;;;5018605;28;20064;-78
2022/08/26 13:20:50;;;;;;;11.95;6.18;;;;;;;;;;5016800;28;20100;-78
2022/08/26 13:23:16;;;;;;;10.82;6.43;;;;;;;;;;5017514;28;20661;-79
2022/08/26 13:25:42;;;;;;;9.82;6.45;;;;;;;;;;5016621;28;20037;-78
2022/08/26 13:28:08;;;;;;;11.48;6.68;;;;;;;;;;5001718;28;20019;-79
2022/08/26 13:30:34;;;;;;;10.32;6.70;;;;;;;;;;5004794;28;20026;-78
2022/08/26 13:33:00;;;;;;;10.82;5.70;;;;;;;;;;4999123;28;20188;-79
2022/08/26 13:35:26;;;;;;;15.10;6.13;;;;;;;;;;4998104;28;20033;-78
2022/08/26 13:37:52;;;;;;;13.18;6.55;;;;;;;;;;4998764;28;20022;-78
2022/08/26 13:40:18;;;;;;;11.07;6.53;;;;;;;;;;4998920;28;20040;-79
2022/08/26 13:42:45;;;;;;;11.07;6.32;;;;;;;;;;5014302;28;20109;-78
2022/08/26 13:45:11;;;;;;;10.95;6.05;;;;;;;;;;5012786;28;20030;-78
2022/08/26 13:47:37;;;;;;;9.93;6.35;;;;;;;;;;5016681;28;20025;-77
2022/08/26 13:50:04;;;;;;;10.25;6.03;;;;;;;;;;4984653;28;20054;-78
2022/08/26 13:52:30;;;;;;;9.30;5.47;;;;;;;;;;5012603;28;20045;-79
2022/08/26 13:54:56;;;;;;;9.85;6.00;;;;;;;;;;5015247;28;20099;-79
2022/08/26 13:57:23;;;;;;;11.73;6.07;;;;;;;;;;5008275;28;20054;-79
2022/08/26 13:59:50;;;;;;;12.80;5.68;;;;;;;;;;5005301;28;20022;-78
2022/08/26 14:02:16;;;;;;;9.98;5.35;;;;;;;;;;4991387;28;20521;-78
2022/08/26 14:04:42;;;;;;;11.38;5.82;;;;;;;;;;5007617;28;20214;-78
2022/08/26 14:07:08;;;;;;;9.45;5.68;;;;;;;;;;5010886;28;20053;-78
2022/08/26 14:09:34;;;;;;;9.52;6.20;;;;;;;;;;5013413;28;20018;-78
2022/08/26 14:12:00;;;;;;;10.40;6.03;;;;;;;;;;5017181;28;20069;-79
2022/08/26 14:14:26;;;;;;;9.30;5.80;;;;;;;;;;5015996;28;20033;-78
2022/08/26 14:16:53;;;;;;;11.10;6.07;;;;;;;;;;5015117;28;20490;-78
2022/08/26 14:19:19;;;;;;;11.95;5.85;;;;;;;;;;4999044;28;20029;-78
2022/08/26 14:21:45;;;;;;;10.00;5.63;;;;;;;;;;5007090;28;20037;-78
2022/08/26 14:24:11;;;;;;;9.05;5.60;;;;;;;;;;4980504;28;20483;-79
2022/08/26 14:26:37;;;;;;;11.60;6.32;;;;;;;;;;5002621;28;20068;-80
2022/08/26 14:29:04;;;;;;;12.25;6.28;;;;;;;;;;5017658;28;20029;-79
2022/08/26 14:31:32;;;;;;;10.05;5.97;;;;;;;;;;5017700;28;20044;-79
2022/08/26 14:33:59;;;;;;;10.60;5.93;;;;;;;;;;4989589;28;20037;-79
2022/08/26 14:36:30;;;;;;;9.32;5.25;;;;;;;;;;5007314;28;20030;-79
2022/08/26 14:38:58;;;;;;;11.23;5.75;;;;;;;;;;5013708;28;20022;-79
2022/08/26 14:41:25;;;;;;;9.73;5.32;;;;;;;;;;4996803;28;20508;-79
2022/08/26 14:44:03;;;;;;;11.13;5.10;;;;;;;;;;5015592;28;20065;-80